Time;durP1;ratioP1;P1;durP2;ratioP2;P2;SDS_P1;SDS_P2;PMS_P1;PMS_P2;Temp;Humidity;BMP_temperature;BMP_pressure;BME280_temperature;BME280_humidity;BME280_pressure;Samples;Min_cycle;Max_cycle;Signal;HPM_P1;HPM_P2
2021/12/05 00:24:16;;;;;;;75.90;42.40;;;;;;;;;;4760586;30;20037;-88
2021/12/05 00:28:02;;;;;;;67.63;40.20;;;102.60;2227.20;;;;;;4742380;30;20037;-87
2021/12/05 00:34:45;;;;;;;69.60;41.37;;;102.50;2227.20;;;;;;4741872;30;20639;-87
2021/12/05 00:50:44;;;;;;;61.65;38.88;;;102.50;2227.20;;;;;;4647286;30;20043;-90
2021/12/05 01:33:24;;;;;;;63.03;39.17;;;102.60;2227.20;;;;;;4968068;24;20276;-88
2021/12/05 02:41:55;;;;;;;52.13;34.40;;;102.80;2227.20;;;;;;4815721;29;20084;-87
2021/12/05 02:44:36;;;;;;;55.53;34.87;;;102.70;2227.20;;;;;;4810015;29;20052;-86
2021/12/05 02:47:30;;;;;;;57.87;36.67;;;102.70;2227.20;;;;;;4834794;29;20022;-86
2021/12/05 02:50:44;;;;;;;50.97;33.97;;;102.70;2227.20;;;;;;4856477;29;20065;-88
2021/12/05 02:53:42;;;;;;;56.33;34.50;;;102.70;2227.20;;;;;;4850405;29;20265;-86
2021/12/05 03:02:15;;;;;;;47.13;32.07;;;102.70;2227.20;;;;;;5433124;24;20060;-87
2021/12/05 03:05:11;;;;;;;52.07;35.07;;;102.80;2227.20;;;;;;4863087;29;20075;-89
2021/12/05 03:07:42;;;;;;;50.93;31.87;;;102.70;2227.20;;;;;;4849318;29;20034;-86
2021/12/05 03:10:47;;;;;;;50.87;33.43;;;102.80;2227.20;;;;;;4864720;29;20042;-86
2021/12/05 03:13:14;;;;;;;49.93;33.60;;;102.70;2227.20;;;;;;4852676;29;20097;-87
2021/12/05 03:16:04;;;;;;;56.03;33.00;;;102.60;2227.20;;;;;;4833461;29;20042;-86
2021/12/05 03:19:02;;;;;;;51.47;31.50;;;102.80;2227.20;;;;;;4865669;29;20033;-87
2021/12/05 03:21:32;;;;;;;50.40;32.97;;;102.80;2227.20;;;;;;4849900;29;20046;-88
2021/12/05 03:24:15;;;;;;;45.80;31.43;;;102.80;2227.20;;;;;;4833655;29;20117;-87
2021/12/05 03:26:54;;;;;;;46.63;30.20;;;102.80;2227.20;;;;;;4865506;29;20033;-88
2021/12/05 03:33:00;;;;;;;49.90;32.23;;;102.80;2227.20;;;;;;4865803;29;20017;-88
2021/12/05 03:35:51;;;;;;;47.13;29.93;;;102.80;2227.20;;;;;;4791336;30;20034;-88
2021/12/05 03:38:26;;;;;;;55.17;32.65;;;102.80;2227.20;;;;;;4780293;30;20051;-86
2021/12/05 03:41:46;;;;;;;46.77;30.47;;;102.80;2227.20;;;;;;4809215;29;20043;-87
2021/12/05 03:45:11;;;;;;;48.63;31.53;;;102.80;2227.20;;;;;;4790998;29;20020;-86
2021/12/05 03:48:10;;;;;;;48.37;30.43;;;102.80;2227.20;;;;;;4789467;29;20046;-88
2021/12/05 03:50:55;;;;;;;51.23;32.03;;;102.90;2227.20;;;;;;4764254;30;20065;-88
2021/12/05 03:53:48;;;;;;;49.27;32.07;;;102.80;2227.20;;;;;;4776704;30;20058;-88
2021/12/05 03:57:00;;;;;;;50.80;32.00;;;102.80;2227.20;;;;;;4772843;30;20095;-87
2021/12/05 03:59:45;;;;;;;51.43;32.30;;;102.90;2227.20;;;;;;4773082;30;20040;-87
2021/12/05 04:03:03;;;;;;;47.50;31.30;;;102.80;2227.20;;;;;;4743834;29;20080;-87
2021/12/05 04:05:41;;;;;;;50.60;32.03;;;102.90;2227.20;;;;;;4755494;30;20052;-87
2021/12/05 04:08:22;;;;;;;46.83;31.00;;;102.90;2227.20;;;;;;4740694;30;20071;-86
2021/12/05 04:11:17;;;;;;;47.77;32.47;;;102.90;2227.20;;;;;;4755180;30;20066;-87
2021/12/05 04:14:30;;;;;;;50.13;31.50;;;102.90;2227.20;;;;;;4740773;30;20040;-87
2021/12/05 04:17:01;;;;;;;47.40;32.07;;;102.90;2227.20;;;;;;4705464;30;20072;-87
2021/12/05 04:19:35;;;;;;;;;;;102.80;2227.20;;;;;;4718719;30;20053;-87
2021/12/05 04:22:25;;;;;;;48.30;30.77;;;102.90;2227.20;;;;;;4714091;30;19903;-87
2021/12/05 04:25:37;;;;;;;52.33;32.77;;;128.30;2252.80;;;;;;4719801;30;20025;-87
2021/12/05 04:31:58;;;;;;;47.57;31.33;;;102.80;2227.20;;;;;;4720849;30;20125;-86
2021/12/05 04:34:54;;;;;;;47.57;30.97;;;102.90;2227.20;;;;;;4688598;30;20041;-88
2021/12/05 04:37:51;;;;;;;45.17;29.70;;;102.90;2227.20;;;;;;4702400;30;20030;-87
2021/12/05 04:40:28;;;;;;;;;;;102.90;2227.20;;;;;;4702941;30;20038;-87
2021/12/05 04:43:07;;;;;;;54.77;31.30;;;103.30;2227.20;;;;;;4717183;30;19959;-87
2021/12/05 04:49:20;;;;;;;47.53;29.53;;;102.90;2227.20;;;;;;4759178;30;20059;-89
2021/12/05 04:51:50;;;;;;;47.40;31.27;;;102.90;2227.20;;;;;;4727323;30;20021;-87
2021/12/05 04:55:11;;;;;;;50.23;32.10;;;102.90;2227.20;;;;;;4740095;30;20041;-88
2021/12/05 04:58:08;;;;;;;45.87;30.37;;;102.90;2227.20;;;;;;4692278;30;20028;-87
2021/12/05 05:01:06;;;;;;;49.67;32.23;;;102.90;2227.20;;;;;;4678479;30;20037;-87
2021/12/05 05:44:39;;;;;;;54.57;33.97;;;102.90;2227.20;;;;;;4866353;29;20020;-87
2021/12/05 05:47:59;;;;;;;56.33;33.63;;;102.90;2227.20;;;;;;4853359;29;20048;-87
2021/12/05 05:50:40;;;;;;;58.33;34.47;;;102.90;2227.20;;;;;;4858755;29;20013;-86
2021/12/05 05:53:25;;;;;;;51.93;34.50;;;102.90;2227.20;;;;;;4828043;29;20102;-87
2021/12/05 05:56:26;;;;;;;56.67;35.60;;;103.00;2227.20;;;;;;4849302;29;20030;-88
2021/12/05 06:00:07;;;;;;;59.00;35.73;;;103.00;2227.20;;;;;;4866026;29;20116;-87
2021/12/05 06:05:39;;;;;;;61.90;36.40;;;103.00;2227.20;;;;;;4827941;29;20066;-87
2021/12/05 06:08:35;;;;;;;57.10;33.23;;;103.00;2227.20;;;;;;4826663;29;20047;-87
2021/12/05 06:11:25;;;;;;;54.53;34.27;;;103.10;2227.20;;;;;;4825739;29;20050;-87
2021/12/05 06:13:55;;;;;;;58.67;35.43;;;103.10;2227.20;;;;;;4827180;29;20043;-87
2021/12/05 06:16:32;;;;;;;58.40;36.37;;;103.10;2227.20;;;;;;4812134;29;20027;-87
2021/12/05 06:19:07;;;;;;;56.33;34.83;;;103.20;2227.20;;;;;;4781901;29;20047;-87
2021/12/05 06:21:36;;;;;;;57.93;36.40;;;103.20;2227.20;;;;;;4811290;29;20038;-87
2021/12/05 06:24:46;;;;;;;59.97;38.03;;;103.20;2227.20;;;;;;4826010;29;20031;-87
2021/12/05 06:27:17;;;;;;;60.83;39.10;;;103.20;2227.20;;;;;;4838272;29;20025;-87
2021/12/05 06:30:09;;;;;;;83.33;52.37;;;128.20;2252.80;;;;;;4847942;29;20086;-87
2021/12/05 06:39:16;;;;;;;61.53;42.47;;;103.30;2227.20;;;;;;4789995;30;20046;-87
2021/12/05 06:47:37;;;;;;;74.17;46.60;;;103.30;2227.20;;;;;;4789207;30;20531;-86
2021/12/05 06:50:09;;;;;;;83.20;52.25;;;103.30;2227.20;;;;;;4773223;30;20559;-87
2021/12/05 06:52:39;;;;;;;85.07;50.37;;;128.00;2252.80;;;;;;4771600;30;20043;-86
2021/12/05 06:55:32;;;;;;;89.50;53.83;;;128.00;2252.80;;;;;;4773640;30;20028;-87
2021/12/05 06:58:10;;;;;;;93.87;55.17;;;128.00;2252.80;;;;;;4759067;30;20080;-85
2021/12/05 07:00:41;;;;;;;90.85;52.97;;;128.00;2252.80;;;;;;4788721;30;20028;-87
2021/12/05 07:03:24;;;;;;;103.67;56.87;;;128.10;2252.80;;;;;;4787127;30;20046;-87
2021/12/05 07:05:58;;;;;;;;;;;128.10;2252.80;;;;;;4785658;30;20067;-87
2021/12/05 07:08:29;;;;;;;95.00;53.33;;;128.20;2252.80;;;;;;4771665;30;19910;-87
2021/12/05 07:11:19;;;;;;;94.23;50.70;;;128.00;2252.80;;;;;;4789862;29;20043;-87
2021/12/05 07:14:33;;;;;;;84.77;50.37;;;128.20;2252.80;;;;;;4832196;29;20067;-87
2021/12/05 07:16:59;;;;;;;86.70;53.70;;;128.20;2252.80;;;;;;4861580;29;20062;-86
2021/12/05 07:19:55;;;;;;;95.03;56.90;;;128.20;2252.80;;;;;;4861237;29;20026;-87
2021/12/05 07:42:23;;;;;;;108.60;67.93;;;128.40;2252.80;;;;;;4862364;29;20067;-87
2021/12/05 07:45:01;;;;;;;97.47;59.60;;;128.40;2252.80;;;;;;4844985;29;20034;-86
2021/12/05 07:47:31;;;;;;;94.77;59.07;;;128.40;2252.80;;;;;;4846231;29;20042;-86
2021/12/05 07:50:07;;;;;;;85.00;51.40;;;128.40;2252.80;;;;;;4845653;29;20030;-86
2021/12/05 07:52:49;;;;;;;95.77;58.87;;;128.40;2252.80;;;;;;4860723;29;20030;-86
2021/12/05 07:55:21;;;;;;;118.93;66.43;;;128.50;2252.80;;;;;;4844662;29;20038;-84
2021/12/05 08:00:34;;;;;;;142.93;77.45;;;128.50;2252.80;;;;;;4860835;29;20030;-86
2021/12/05 08:14:35;;;;;;;157.45;77.90;;;128.60;2252.80;;;;;;4850914;29;20138;-86
2021/12/05 08:17:28;;;;;;;163.60;68.07;;;128.60;2252.80;;;;;;4831910;29;20063;-86
2021/12/05 08:19:56;;;;;;;155.43;71.50;;;128.60;2252.80;;;;;;4851283;29;20030;-85
2021/12/05 08:22:38;;;;;;;142.90;69.20;;;128.60;2252.80;;;;;;4867493;29;20045;-86
2021/12/05 08:25:48;;;;;;;97.90;56.70;;;128.50;2252.80;;;;;;4840035;29;20033;-86
2021/12/05 08:34:44;;;;;;;105.57;60.83;;;128.70;2252.80;;;;;;4852935;29;20018;-86
2021/12/05 09:24:46;;;;;;;;;;;153.70;2252.80;;;;;;4773442;30;20091;-85
2021/12/05 09:30:57;;;;;;;84.50;52.67;;;153.80;2252.80;;;;;;4773080;30;20611;-85
2021/12/05 10:07:18;;;;;;;97.30;59.53;;;154.10;2252.80;;;;;;4730188;30;20048;-85
2021/12/05 10:13:01;;;;;;;81.70;50.03;;;154.20;2252.80;;;;;;4753504;30;20067;-85
2021/12/05 10:19:30;;;;;;;96.95;60.22;;;154.20;2252.80;;;;;;4702337;30;20049;-85
2021/12/05 10:37:18;;;;;;;74.97;46.55;;;154.20;2252.80;;;;;;4667795;30;20062;-82
2021/12/05 10:40:15;;;;;;;95.53;57.28;;;154.20;2252.80;;;;;;4734810;30;20040;-86
2021/12/05 10:43:16;;;;;;;78.75;47.20;;;154.20;2252.80;;;;;;4752137;30;20084;-85
2021/12/05 10:46:19;;;;;;;63.70;41.85;;;154.30;2252.80;;;;;;4742241;30;20577;-86
2021/12/05 10:54:11;;;;;;;136.32;66.57;;;154.20;2252.80;;;;;;4939159;24;20126;-83
2021/12/05 10:56:49;;;;;;;91.57;53.65;;;154.30;2252.80;;;;;;4864791;29;20025;-83
2021/12/05 10:59:20;;;;;;;113.30;60.70;;;154.30;2252.80;;;;;;4866573;29;20043;-83
2021/12/05 11:02:00;;;;;;;142.27;74.25;;;154.30;2252.80;;;;;;4866830;29;20046;-80
2021/12/05 11:04:33;;;;;;;144.32;84.35;;;154.30;2252.80;;;;;;4864231;29;20045;-82
2021/12/05 11:07:07;;;;;;;82.22;49.15;;;154.20;2252.80;;;;;;4881887;29;20025;-82
2021/12/05 11:09:47;;;;;;;74.57;46.83;;;154.30;2252.80;;;;;;4882804;29;20014;-82
2021/12/05 11:12:26;;;;;;;91.45;58.55;;;154.30;2252.80;;;;;;4866308;29;20066;-82
2021/12/05 11:15:02;;;;;;;107.65;63.80;;;154.20;2252.80;;;;;;4880715;29;20040;-81
2021/12/05 11:17:56;;;;;;;89.78;54.22;;;154.30;2252.80;;;;;;4884106;29;20050;-82
2021/12/05 11:31:32;;;;;;;115.82;68.20;;;154.40;2252.80;;;;;;725025;24;20263;-78
2021/12/05 11:34:32;;;;;;;220.13;127.15;;;154.30;2252.80;;;;;;5649047;23;20089;31
2021/12/05 11:37:26;;;;;;;241.80;135.13;;;154.40;2252.80;;;;;;5591790;23;20032;31
2021/12/05 11:44:07;;;;;;;264.05;149.27;;;154.40;2252.80;;;;;;508202;27;20437;-78
2021/12/05 11:47:20;;;;;;;97.63;58.40;;;154.50;2252.80;;;;;;4900650;23;20078;31
2021/12/05 11:53:45;;;;;;;127.82;76.15;;;179.30;2252.80;;;;;;5653767;23;20045;31
2021/12/05 11:56:57;;;;;;;125.18;72.82;;;179.40;2252.80;;;;;;4831461;29;20135;-80
2021/12/05 17:35:01;;;;;;;129.70;85.57;;;154.00;2252.80;;;;;;5855053;22;20373;31
2021/12/05 17:47:13;;;;;;;100.25;61.40;;;154.10;2252.80;;;;;;512878;27;20316;-78
2021/12/05 17:56:48;;;;;;;103.38;61.08;;;154.00;2252.80;;;;;;4973059;23;20043;-76
2021/12/05 17:59:46;;;;;;;80.35;47.30;;;154.00;2252.80;;;;;;4932444;29;20043;-75
2021/12/05 18:02:55;;;;;;;69.43;42.75;;;153.90;2252.80;;;;;;4933402;29;20084;-75
2021/12/05 18:05:45;;;;;;;150.52;86.25;;;153.90;2252.80;;;;;;4919935;29;20072;-78
2021/12/05 18:08:20;;;;;;;128.75;72.78;;;153.80;2252.80;;;;;;4935649;29;20035;-77
2021/12/05 18:10:51;;;;;;;114.57;70.05;;;153.80;2252.80;;;;;;4907161;29;20029;-77
2021/12/05 18:13:22;;;;;;;65.45;44.50;;;153.70;2252.80;;;;;;4924404;29;20048;-77
2021/12/05 18:15:57;;;;;;;84.13;57.90;;;154.10;2252.80;;;;;;4929772;29;20033;-77
2021/12/05 18:18:45;;;;;;;126.00;81.68;;;153.70;2252.80;;;;;;4903841;29;20036;-77
2021/12/05 18:21:13;;;;;;;115.93;76.00;;;153.70;2252.80;;;;;;4931357;29;20009;-77
2021/12/05 18:24:23;;;;;;;106.88;75.57;;;153.70;2252.80;;;;;;4919158;29;20024;-78
2021/12/05 18:27:02;;;;;;;79.43;55.45;;;128.90;2252.80;;;;;;4926360;29;20048;-76
2021/12/05 18:29:59;;;;;;;60.80;42.80;;;153.70;2252.80;;;;;;4934800;29;20047;-85
2021/12/05 18:35:20;;;;;;;104.63;72.25;;;153.70;2252.80;;;;;;5132642;23;20035;-77
2021/12/05 18:38:06;;;;;;;198.07;119.37;;;153.80;2252.80;;;;;;4935950;28;20075;-78
2021/12/05 18:41:18;;;;;;;117.90;74.43;;;153.80;2252.80;;;;;;4952286;28;20028;-80
2021/12/05 18:43:47;;;;;;;129.03;75.53;;;153.80;2252.80;;;;;;4949364;28;20012;-78
2021/12/05 18:47:12;;;;;;;147.55;93.18;;;153.80;2252.80;;;;;;4927905;29;20092;-78
2021/12/05 18:50:21;;;;;;;131.02;79.70;;;153.80;2252.80;;;;;;4942875;29;20032;-82
2021/12/05 18:52:57;;;;;;;124.97;73.83;;;153.80;2252.80;;;;;;4992613;23;20039;-80
2021/12/05 18:55:32;;;;;;;130.20;78.57;;;154.30;2252.80;;;;;;4883711;29;20056;-79
2021/12/05 18:58:08;;;;;;;59.00;38.00;;;153.80;2252.80;;;;;;4898266;29;20036;-79
2021/12/05 19:07:29;;;;;;;117.55;67.70;;;153.80;2252.80;;;;;;4974250;23;20043;-79
2021/12/05 19:15:54;;;;;;;355.88;174.65;;;153.90;2252.80;;;;;;5294865;23;20059;-79
2021/12/05 19:21:24;;;;;;;474.85;279.75;;;153.90;2252.80;;;;;;4874638;27;20049;-79
2021/12/05 19:23:59;;;;;;;435.17;289.63;;;153.90;2252.80;;;;;;4938155;23;20120;-81
2021/12/05 19:26:51;;;;;;;192.87;124.87;;;153.90;2252.80;;;;;;4922892;29;20020;-84
2021/12/05 19:29:33;;;;;;;172.82;112.22;;;153.80;2252.80;;;;;;5067421;23;20041;-84
2021/12/05 19:32:40;;;;;;;131.48;98.22;;;153.80;2252.80;;;;;;4863066;29;20058;-78
2021/12/05 19:35:11;;;;;;;96.25;56.67;;;153.80;2252.80;;;;;;4859689;29;20014;-78
2021/12/05 19:37:42;;;;;;;69.45;43.20;;;153.70;2252.80;;;;;;4864503;29;20080;-78
2021/12/05 19:40:45;;;;;;;79.20;48.50;;;153.70;2252.80;;;;;;4858988;29;20021;-79
2021/12/05 19:43:17;;;;;;;80.95;51.13;;;153.80;2252.80;;;;;;4862263;29;20042;-80
2021/12/05 19:46:10;;;;;;;86.05;54.85;;;153.80;2252.80;;;;;;4861943;29;20106;-80
2021/12/05 19:48:39;;;;;;;91.05;52.88;;;153.80;2252.80;;;;;;4865383;29;20022;-79
2021/12/05 19:51:10;;;;;;;89.95;53.95;;;153.90;2252.80;;;;;;5525887;23;20022;-78
2021/12/05 19:54:29;;;;;;;77.00;45.78;;;153.90;2252.80;;;;;;4906485;29;20037;-78
2021/12/05 19:57:39;;;;;;;72.88;46.05;;;153.90;2252.80;;;;;;4863451;29;20038;-80
2021/12/05 20:00:36;;;;;;;70.65;42.92;;;153.90;2252.80;;;;;;4849429;29;20049;-78
2021/12/05 20:03:23;;;;;;;82.03;43.70;;;153.90;2252.80;;;;;;4866164;29;20050;-84
2021/12/05 20:05:56;;;;;;;111.07;56.63;;;153.90;2252.80;;;;;;5402661;23;20023;-76
2021/12/05 20:22:12;;;;;;;102.82;57.55;;;153.90;2252.80;;;;;;4754844;27;20040;-79
2021/12/05 20:28:22;;;;;;;87.43;53.08;;;153.90;2252.80;;;;;;4874790;29;20062;-76
2021/12/05 20:30:48;;;;;;;110.28;64.20;;;179.20;2252.80;;;;;;4860470;29;20053;-77
2021/12/05 20:37:19;;;;;;;142.82;86.68;;;154.00;2252.80;;;;;;4940529;29;20039;-77
2021/12/05 20:40:30;;;;;;;132.88;77.97;;;154.00;2252.80;;;;;;4940538;29;20039;-77
2021/12/05 20:47:09;;;;;;;104.18;61.55;;;154.00;2252.80;;;;;;4897725;29;20023;-77
2021/12/05 20:55:02;;;;;;;132.02;74.15;;;154.00;2252.80;;;;;;4923860;23;20051;-79
2021/12/05 20:58:10;;;;;;;111.60;65.63;;;153.90;2252.80;;;;;;4919843;29;20048;-76
2021/12/05 21:01:12;;;;;;;105.35;60.80;;;153.90;2252.80;;;;;;4846864;29;20042;-77
2021/12/05 21:04:18;;;;;;;122.77;71.63;;;154.00;2252.80;;;;;;4846348;29;20030;-77
2021/12/05 21:07:02;;;;;;;96.40;63.00;;;154.00;2252.80;;;;;;4847592;29;20101;-77
2021/12/05 21:09:57;;;;;;;96.75;58.60;;;154.00;2252.80;;;;;;4845795;29;20108;-77
2021/12/05 21:12:57;;;;;;;105.45;62.25;;;154.00;2252.80;;;;;;4843490;29;20069;-78
2021/12/05 21:18:55;;;;;;;127.22;75.95;;;154.10;2252.80;;;;;;5535790;23;20060;-77
2021/12/05 21:21:43;;;;;;;134.33;77.67;;;154.10;2252.80;;;;;;4917245;29;20019;-77
2021/12/05 21:25:00;;;;;;;134.40;78.60;;;154.10;2252.80;;;;;;4918879;23;20033;-77
2021/12/05 21:31:12;;;;;;;167.13;98.80;;;154.10;2252.80;;;;;;4920554;28;20029;-78
2021/12/05 21:33:39;;;;;;;121.73;66.70;;;154.10;2252.80;;;;;;4921009;29;20041;-77
2021/12/05 21:36:06;;;;;;;108.20;67.93;;;154.10;2252.80;;;;;;4891673;29;20032;-76
2021/12/05 21:38:32;;;;;;;81.85;54.47;;;154.10;2252.80;;;;;;4912781;29;20021;-77
2021/12/05 21:41:23;;;;;;;92.45;61.05;;;154.10;2252.80;;;;;;4901586;29;20008;-77
2021/12/05 21:43:51;;;;;;;97.53;57.67;;;154.10;2252.80;;;;;;4888680;29;20017;-78
2021/12/05 21:46:19;;;;;;;76.72;47.33;;;154.10;2252.80;;;;;;4889366;29;20482;-77
2021/12/05 21:48:48;;;;;;;79.65;52.22;;;154.10;2252.80;;;;;;4887187;29;20036;-77
2021/12/05 21:51:15;;;;;;;86.07;54.28;;;154.10;2252.80;;;;;;4902962;29;20036;-77
2021/12/05 21:53:44;;;;;;;74.32;49.75;;;154.10;2252.80;;;;;;4904679;29;20041;-77
2021/12/05 21:56:13;;;;;;;77.78;47.00;;;154.10;2252.80;;;;;;4885122;29;20031;-77
2021/12/05 21:58:39;;;;;;;77.68;48.72;;;154.10;2252.80;;;;;;4884586;29;20047;-77
2021/12/05 22:01:06;;;;;;;70.50;44.10;;;153.90;2252.80;;;;;;4897085;29;20013;-77
2021/12/05 22:03:39;;;;;;;67.10;40.63;;;154.20;2252.80;;;;;;4897786;29;20051;-77
2021/12/05 22:06:07;;;;;;;62.80;38.78;;;154.00;2252.80;;;;;;4923075;23;20104;-77
2021/12/05 22:08:38;;;;;;;62.47;38.30;;;154.00;2252.80;;;;;;4917361;29;20359;-77
2021/12/05 22:11:05;;;;;;;67.10;38.20;;;179.20;2252.80;;;;;;4916258;29;20033;-78
2021/12/05 22:13:31;;;;;;;68.25;41.17;;;154.00;2252.80;;;;;;4918073;29;20033;-78
2021/12/05 22:16:20;;;;;;;68.75;41.90;;;154.00;2252.80;;;;;;4918541;29;20028;-77
2021/12/05 22:18:47;;;;;;;75.47;42.50;;;154.00;2252.80;;;;;;4921453;29;20036;-78
2021/12/05 22:21:19;;;;;;;74.65;44.58;;;153.90;2252.80;;;;;;4907437;29;20045;-79
2021/12/05 22:24:33;;;;;;;66.38;38.38;;;153.90;2252.80;;;;;;4917464;29;20112;-78
2021/12/05 22:27:34;;;;;;;58.53;36.20;;;153.90;2252.80;;;;;;4920415;29;20015;-81
2021/12/05 22:30:28;;;;;;;61.38;38.20;;;153.60;2252.80;;;;;;4921736;29;20012;-83
2021/12/05 22:32:58;;;;;;;80.68;50.10;;;153.70;2252.80;;;;;;4923843;29;20056;-81
2021/12/05 22:35:27;;;;;;;91.10;54.25;;;153.60;2252.80;;;;;;4861446;29;20040;-87
2021/12/05 22:37:56;;;;;;;89.60;54.10;;;153.60;2252.80;;;;;;4907571;29;20025;-82
2021/12/05 22:40:46;;;;;;;90.95;54.17;;;153.60;2252.80;;;;;;4923366;29;20031;-82
2021/12/05 22:43:16;;;;;;;96.68;57.40;;;153.60;2252.80;;;;;;4924262;29;20017;-81
2021/12/05 22:45:44;;;;;;;92.53;53.60;;;153.60;2252.80;;;;;;4908052;29;20029;-82
2021/12/05 22:48:48;;;;;;;90.75;54.95;;;153.60;2252.80;;;;;;4907733;29;20025;-81
2021/12/05 22:51:34;;;;;;;100.78;58.35;;;153.60;2252.80;;;;;;4924316;29;20036;-84
2021/12/05 22:54:28;;;;;;;100.22;59.97;;;153.60;2252.80;;;;;;4908220;29;20028;-88
2021/12/05 22:56:57;;;;;;;97.18;56.15;;;153.60;2252.80;;;;;;4921937;29;20037;-81
2021/12/05 22:59:51;;;;;;;93.88;57.00;;;153.60;2252.80;;;;;;4908191;29;20049;-88
2021/12/05 23:02:19;;;;;;;;;;;153.70;2252.80;;;;;;4925019;29;20043;-82
2021/12/05 23:11:14;;;;;;;110.57;66.20;;;153.80;2252.80;;;;;;4940069;29;20042;-80
2021/12/05 23:14:04;;;;;;;124.07;71.38;;;153.80;2252.80;;;;;;4925988;29;20051;-80
2021/12/05 23:16:43;;;;;;;107.15;61.58;;;153.90;2252.80;;;;;;4925703;29;20008;-84
2021/12/05 23:19:14;;;;;;;109.03;61.45;;;153.90;2252.80;;;;;;4924615;29;20043;-80
2021/12/05 23:22:09;;;;;;;100.95;61.60;;;153.90;2252.80;;;;;;4926408;29;20016;-82
2021/12/05 23:24:39;;;;;;;105.10;62.80;;;154.00;2252.80;;;;;;4905907;29;20052;-84
2021/12/05 23:27:11;;;;;;;97.22;58.92;;;154.00;2252.80;;;;;;4907281;29;20046;-81
2021/12/05 23:29:43;;;;;;;96.40;58.28;;;154.00;2252.80;;;;;;4923360;29;20104;-80
2021/12/05 23:40:09;;;;;;;128.20;69.13;;;154.10;2252.80;;;;;;4921346;29;20033;-79
2021/12/05 23:43:23;;;;;;;118.53;66.93;;;154.10;2252.80;;;;;;4922632;29;20033;-79
2021/12/05 23:46:03;;;;;;;118.88;68.80;;;154.20;2252.80;;;;;;4921938;29;20037;-79
2021/12/05 23:52:09;;;;;;;147.38;75.88;;;154.20;2252.80;;;;;;4008695;27;20040;-79
2021/12/05 23:55:26;;;;;;;108.10;60.33;;;154.10;2252.80;;;;;;4920694;29;20057;-79
2021/12/05 23:57:59;;;;;;;135.30;70.20;;;154.10;2252.80;;;;;;4924037;29;20013;-79
